createdAt,value
2017-07-30T00:01:03.329Z,20.30
2017-07-30T00:03:32.049Z,20.30
2017-07-30T00:06:02.506Z,20.40
2017-07-30T00:08:31.895Z,20.40
2017-07-30T00:11:00.571Z,20.40
2017-07-30T00:13:28.880Z,20.40
2017-07-30T00:15:57.322Z,20.40
2017-07-30T00:18:26.113Z,20.40
2017-07-30T00:20:54.701Z,20.40
2017-07-30T00:23:23.752Z,20.50
2017-07-30T00:25:52.054Z,20.40
2017-07-30T00:28:20.383Z,20.50
2017-07-30T00:30:49.470Z,20.50
2017-07-30T00:33:18.185Z,20.50
2017-07-30T00:35:46.453Z,20.60
2017-07-30T00:38:15.354Z,20.50
2017-07-30T00:40:43.924Z,20.50
2017-07-30T00:43:12.231Z,20.50
2017-07-30T00:45:40.888Z,20.50
2017-07-30T00:48:09.185Z,20.50
2017-07-30T00:50:37.480Z,20.40
2017-07-30T00:53:05.865Z,20.50
2017-07-30T00:55:34.239Z,20.50
2017-07-30T00:58:03.227Z,20.40
2017-07-30T01:00:31.539Z,20.40
2017-07-30T01:03:01.056Z,20.40
2017-07-30T01:05:30.521Z,20.40
2017-07-30T01:07:59.565Z,20.30
2017-07-30T01:10:28.947Z,20.30
2017-07-30T01:12:57.450Z,20.30
2017-07-30T01:15:26.515Z,20.30
2017-07-30T01:17:55.204Z,20.30
2017-07-30T01:20:23.507Z,20.30
2017-07-30T01:22:52.817Z,20.40
2017-07-30T01:25:21.135Z,20.40
2017-07-30T01:27:49.971Z,20.40
2017-07-30T01:30:18.285Z,20.40
2017-07-30T01:32:47.353Z,20.50
2017-07-30T01:35:15.948Z,20.50
2017-07-30T01:37:46.034Z,20.50
2017-07-30T01:40:14.545Z,20.60
2017-07-30T01:42:42.865Z,20.50
2017-07-30T01:45:11.940Z,20.60
2017-07-30T01:47:40.730Z,20.60
2017-07-30T01:50:09.046Z,20.60
2017-07-30T01:52:37.312Z,20.60
2017-07-30T01:55:06.501Z,20.60
2017-07-30T01:57:34.808Z,20.60
2017-07-30T02:00:03.130Z,20.70
2017-07-30T02:02:31.444Z,20.70
2017-07-30T02:04:59.746Z,20.60
2017-07-30T02:07:29.539Z,20.40
2017-07-30T02:09:57.820Z,20.40
2017-07-30T02:12:26.523Z,20.30
2017-07-30T02:14:54.892Z,20.30
2017-07-30T02:17:23.991Z,20.20
2017-07-30T02:19:52.298Z,20.10
2017-07-30T02:22:21.330Z,20.10
2017-07-30T02:24:50.160Z,20.10
2017-07-30T02:27:19.379Z,20.10
2017-07-30T02:29:48.189Z,20.10
2017-07-30T02:32:16.761Z,20.10
2017-07-30T02:34:46.925Z,20.10
2017-07-30T02:37:15.555Z,20.00
2017-07-30T02:39:44.559Z,20.00
2017-07-30T02:42:13.385Z,20.00
2017-07-30T02:44:42.534Z,20.00
2017-07-30T02:47:11.550Z,20.00
2017-07-30T02:49:40.147Z,20.00
2017-07-30T02:52:08.419Z,20.00
2017-07-30T02:54:37.038Z,20.00
2017-07-30T02:57:05.383Z,20.00
2017-07-30T02:59:33.922Z,19.90
2017-07-30T03:02:04.012Z,19.90
2017-07-30T03:04:32.404Z,19.90
2017-07-30T03:07:01.320Z,19.90
2017-07-30T03:09:30.800Z,19.90
2017-07-30T03:11:59.188Z,19.80
2017-07-30T03:14:27.852Z,19.90
2017-07-30T03:16:56.239Z,19.90
2017-07-30T03:19:25.144Z,19.90
2017-07-30T03:21:53.463Z,19.90
2017-07-30T03:24:22.520Z,19.90
2017-07-30T03:26:51.987Z,19.90
2017-07-30T03:29:20.292Z,20.00
2017-07-30T03:31:48.565Z,20.00
2017-07-30T03:34:17.190Z,20.00
2017-07-30T03:36:45.563Z,20.00
2017-07-30T03:39:15.088Z,20.00
2017-07-30T03:41:43.385Z,20.00
2017-07-30T03:44:12.095Z,20.00
2017-07-30T03:46:41.154Z,20.00
2017-07-30T03:49:09.482Z,20.00
2017-07-30T03:51:38.659Z,19.90
2017-07-30T03:54:08.354Z,20.00
2017-07-30T03:56:36.737Z,20.00
2017-07-30T03:59:05.112Z,20.00
2017-07-30T04:01:34.087Z,20.00
2017-07-30T04:04:03.105Z,20.00
2017-07-30T04:06:31.394Z,20.00
2017-07-30T04:09:00.300Z,20.10
2017-07-30T04:11:28.602Z,20.10
2017-07-30T04:13:58.257Z,20.10
2017-07-30T04:16:26.881Z,20.10
2017-07-30T04:18:55.178Z,20.20
2017-07-30T04:21:24.109Z,20.20
2017-07-30T04:23:52.441Z,20.20
2017-07-30T04:26:22.295Z,20.30
2017-07-30T04:28:51.610Z,20.40
2017-07-30T04:31:20.400Z,20.40
2017-07-30T04:33:48.749Z,20.40
2017-07-30T04:36:17.382Z,20.30
2017-07-30T04:38:46.045Z,20.30
2017-07-30T04:41:15.421Z,20.40
2017-07-30T04:43:44.130Z,20.40
2017-07-30T04:46:12.480Z,20.50
2017-07-30T04:48:41.640Z,20.50
2017-07-30T04:51:09.925Z,20.60
2017-07-30T04:53:38.831Z,20.60
2017-07-30T04:56:07.267Z,20.70
2017-07-30T04:58:35.544Z,20.70
2017-07-30T05:01:03.910Z,20.80
2017-07-30T05:03:32.633Z,20.90
2017-07-30T05:06:01.556Z,20.90
2017-07-30T05:08:30.090Z,20.90
2017-07-30T05:10:58.728Z,21.00
2017-07-30T05:13:28.279Z,21.20
2017-07-30T05:15:56.974Z,21.20
2017-07-30T05:18:25.573Z,21.20
2017-07-30T05:20:54.823Z,21.20
2017-07-30T05:23:23.786Z,21.30
2017-07-30T05:25:52.269Z,21.30
2017-07-30T05:28:21.244Z,21.40
2017-07-30T05:30:49.832Z,21.50
2017-07-30T05:33:18.125Z,21.60
2017-07-30T05:35:47.119Z,21.70
2017-07-30T05:38:15.444Z,21.80
2017-07-30T05:40:44.008Z,21.90
2017-07-30T05:43:12.703Z,22.00
2017-07-30T05:45:41.256Z,22.10
2017-07-30T05:48:10.299Z,22.10
2017-07-30T05:50:40.073Z,22.30
2017-07-30T05:53:08.378Z,22.30
2017-07-30T05:55:38.988Z,22.50
2017-07-30T05:58:07.395Z,22.50
2017-07-30T06:00:35.663Z,22.60
2017-07-30T06:03:04.350Z,22.70
2017-07-30T06:05:32.638Z,22.80
2017-07-30T06:08:01.236Z,22.90
2017-07-30T06:10:29.525Z,23.00
2017-07-30T06:12:58.838Z,23.10
2017-07-30T06:15:27.123Z,23.30
2017-07-30T06:17:56.205Z,23.40
2017-07-30T06:20:25.120Z,23.40
2017-07-30T06:22:53.405Z,23.50
2017-07-30T06:25:24.484Z,23.90
2017-07-30T06:27:52.800Z,23.80
2017-07-30T06:30:21.212Z,23.90
2017-07-30T06:32:51.126Z,24.00
2017-07-30T06:35:19.714Z,23.90
2017-07-30T06:37:48.708Z,23.90
2017-07-30T06:40:17.053Z,23.90
2017-07-30T06:42:45.349Z,23.80
2017-07-30T06:45:13.953Z,23.80
2017-07-30T06:47:42.859Z,23.70
2017-07-30T06:50:11.153Z,23.80
2017-07-30T06:52:40.198Z,24.10
2017-07-30T06:55:08.488Z,24.10
2017-07-30T06:57:37.721Z,24.20
2017-07-30T07:00:06.030Z,24.40
2017-07-30T07:02:34.608Z,24.50
2017-07-30T07:05:03.680Z,24.80
2017-07-30T07:07:32.555Z,24.80
2017-07-30T07:10:01.154Z,24.90
2017-07-30T07:12:29.464Z,25.00
2017-07-30T07:14:59.371Z,25.10
2017-07-30T07:17:27.755Z,25.10
2017-07-30T07:19:56.955Z,25.30
2017-07-30T07:22:25.546Z,25.50
2017-07-30T07:24:54.530Z,25.70
2017-07-30T07:27:23.281Z,25.80
2017-07-30T07:29:51.620Z,25.90
2017-07-30T07:32:19.862Z,26.10
2017-07-30T07:34:48.489Z,26.20
2017-07-30T07:37:16.863Z,26.20
2017-07-30T07:39:45.253Z,26.30
2017-07-30T07:42:14.549Z,26.50
2017-07-30T07:44:43.630Z,26.60
2017-07-30T07:47:12.245Z,26.70
2017-07-30T07:49:40.537Z,26.70
2017-07-30T07:52:10.355Z,26.70
2017-07-30T07:54:39.730Z,26.70
2017-07-30T07:57:08.049Z,26.70
2017-07-30T07:59:37.095Z,26.70
2017-07-30T08:02:05.824Z,26.90
2017-07-30T08:04:34.196Z,27.00
2017-07-30T08:07:03.493Z,27.10
2017-07-30T08:09:32.602Z,27.20
2017-07-30T08:12:00.966Z,27.30
2017-07-30T08:14:29.379Z,27.50
2017-07-30T08:16:57.979Z,27.50
2017-07-30T08:19:27.369Z,27.70
2017-07-30T08:21:55.654Z,27.70
2017-07-30T08:24:24.786Z,27.70
2017-07-30T08:26:54.680Z,27.70
2017-07-30T08:29:22.938Z,27.70
2017-07-30T08:56:51.864Z,28.60
2017-07-30T08:59:20.396Z,28.60
2017-07-30T09:01:49.438Z,28.80
2017-07-30T09:04:18.102Z,29.10
2017-07-30T09:06:47.307Z,29.40
2017-07-30T09:09:16.623Z,29.30
2017-07-30T09:11:44.916Z,29.30
2017-07-30T09:24:15.636Z,30.00
2017-07-30T09:26:43.926Z,30.00
2017-07-30T09:29:16.264Z,30.20
2017-07-30T09:31:47.096Z,30.30
2017-07-30T09:34:15.720Z,30.50
2017-07-30T09:36:43.993Z,30.80
2017-07-30T09:39:12.311Z,31.20
2017-07-30T09:51:39.151Z,31.70
2017-07-30T09:54:08.319Z,31.60
2017-07-30T10:04:06.417Z,32.40
2017-07-30T10:06:34.724Z,32.60
2017-07-30T10:29:03.494Z,33.40
2017-07-30T10:41:30.295Z,33.00
2017-07-30T10:43:58.614Z,32.90
2017-07-30T11:13:56.684Z,34.50
2017-07-30T11:16:25.776Z,34.40
2017-07-30T11:18:55.499Z,33.90
2017-07-30T11:23:53.856Z,34.40
2017-07-30T11:26:23.032Z,35.10
2017-07-30T11:28:52.158Z,35.90
2017-07-30T11:31:21.959Z,36.70
2017-07-30T11:33:51.993Z,37.50
2017-07-30T11:36:20.310Z,37.50
2017-07-30T11:38:50.158Z,38.60
2017-07-30T11:41:18.465Z,38.80
2017-07-30T11:43:49.182Z,40.00
2017-07-30T11:46:17.470Z,39.90
2017-07-30T11:48:45.872Z,40.30
2017-07-30T11:51:14.592Z,39.90
2017-07-30T11:53:43.722Z,38.60
2017-07-30T12:11:10.954Z,41.30
2017-07-30T12:16:11.236Z,42.80
2017-07-30T12:18:39.574Z,42.70
2017-07-30T12:21:09.380Z,41.70
2017-07-30T12:23:37.728Z,41.70
2017-07-30T12:26:07.775Z,41.90
2017-07-30T12:28:36.157Z,40.80
2017-07-30T12:31:05.088Z,40.20
2017-07-30T12:33:34.863Z,41.20
2017-07-30T12:36:03.253Z,41.20
2017-07-30T12:38:32.226Z,41.80
2017-07-30T12:41:01.425Z,42.00
2017-07-30T12:43:30.205Z,42.30
2017-07-30T12:45:59.545Z,41.70
2017-07-30T12:48:28.647Z,42.10
2017-07-30T12:50:57.548Z,41.80
2017-07-30T12:53:26.233Z,41.00
2017-07-30T12:55:56.568Z,41.40
2017-07-30T12:58:25.581Z,41.70
2017-07-30T13:05:53.072Z,42.00
2017-07-30T13:08:22.205Z,40.70
2017-07-30T13:10:50.965Z,40.60
2017-07-30T13:13:19.223Z,40.20
2017-07-30T13:15:48.886Z,39.50
2017-07-30T13:18:17.233Z,39.50
2017-07-30T13:20:45.604Z,39.20
2017-07-30T13:23:16.760Z,37.60
2017-07-30T13:25:46.188Z,38.10
2017-07-30T13:28:15.680Z,39.70
2017-07-30T13:30:43.981Z,39.70
2017-07-30T13:33:13.442Z,41.90
2017-07-30T13:35:42.059Z,41.90
2017-07-30T13:38:11.866Z,43.90
2017-07-30T13:40:41.699Z,43.50
2017-07-30T13:43:10.773Z,42.40
2017-07-30T13:45:40.439Z,42.30
2017-07-30T13:48:09.089Z,42.20
2017-07-30T13:50:38.154Z,43.90
2017-07-30T13:55:38.237Z,41.70
2017-07-30T13:58:08.256Z,41.40
2017-07-30T14:00:37.362Z,41.40
2017-07-30T14:03:06.049Z,40.80
2017-07-30T14:05:35.740Z,41.10
2017-07-30T14:08:04.821Z,41.10
2017-07-30T14:10:35.084Z,42.90
2017-07-30T14:13:03.488Z,42.80
2017-07-30T14:15:32.582Z,44.60
2017-07-30T14:18:01.946Z,44.50
2017-07-30T14:20:30.781Z,44.40
2017-07-30T14:30:30.240Z,40.80
2017-07-30T14:37:58.438Z,39.50
2017-07-30T14:40:28.281Z,39.90
2017-07-30T14:42:56.574Z,39.90
2017-07-30T14:45:25.984Z,41.50
2017-07-30T14:47:55.343Z,41.40
2017-07-30T14:50:24.165Z,42.20
2017-07-30T14:52:52.452Z,41.20
2017-07-30T14:57:50.332Z,39.80
2017-07-30T15:00:19.032Z,40.30
2017-07-30T15:02:48.108Z,42.20
2017-07-30T15:05:17.112Z,42.20
2017-07-30T15:07:45.506Z,42.00
2017-07-30T15:10:13.899Z,41.20
2017-07-30T15:12:42.470Z,40.10
2017-07-30T15:15:10.735Z,39.70
2017-07-30T15:17:39.034Z,38.80
2017-07-30T15:20:07.361Z,37.60
2017-07-30T15:22:36.460Z,35.20
2017-07-30T15:25:05.667Z,35.20
2017-07-30T15:27:34.810Z,34.10
2017-07-30T15:30:03.088Z,34.10
2017-07-30T15:32:31.399Z,33.80
2017-07-30T15:40:01.962Z,36.40
2017-07-30T15:42:30.265Z,36.30
2017-07-30T15:44:59.750Z,34.60
2017-07-30T15:47:28.058Z,34.60
2017-07-30T15:49:57.452Z,34.60
2017-07-30T15:52:26.025Z,34.50
2017-07-30T15:54:54.412Z,34.60
2017-07-30T15:57:23.288Z,34.90
2017-07-30T15:59:51.884Z,35.00
2017-07-30T16:02:20.466Z,35.10
2017-07-30T16:04:49.679Z,34.80
2017-07-30T16:07:18.039Z,34.60
2017-07-30T16:09:46.373Z,34.40
2017-07-30T16:12:14.747Z,34.20
2017-07-30T16:14:43.154Z,34.00
2017-07-30T16:17:11.416Z,33.80
2017-07-30T16:19:39.743Z,33.50
2017-07-30T16:22:08.029Z,33.30
2017-07-30T16:24:36.643Z,33.30
2017-07-30T16:27:04.920Z,33.20
2017-07-30T16:29:33.309Z,33.00
2017-07-30T16:32:01.705Z,33.00
2017-07-30T16:34:30.093Z,33.00
2017-07-30T16:36:58.427Z,33.00
2017-07-30T16:39:27.312Z,32.90
2017-07-30T16:41:55.957Z,32.70
2017-07-30T16:44:24.224Z,32.50
2017-07-30T16:46:53.396Z,32.40
2017-07-30T16:49:22.065Z,32.30
2017-07-30T16:51:51.349Z,32.20
2017-07-30T16:54:19.656Z,32.10
2017-07-30T16:56:48.721Z,32.10
2017-07-30T16:59:17.614Z,32.10
2017-07-30T17:01:46.000Z,32.00
2017-07-30T17:04:14.308Z,31.90
2017-07-30T17:06:43.020Z,31.90
2017-07-30T17:09:12.785Z,31.80
2017-07-30T17:11:41.152Z,31.80
2017-07-30T17:14:09.561Z,31.80
2017-07-30T17:16:37.939Z,31.90
2017-07-30T17:19:06.626Z,31.80
2017-07-30T17:21:35.730Z,31.70
2017-07-30T17:24:04.451Z,31.60
2017-07-30T17:26:33.625Z,31.50
2017-07-30T17:29:02.491Z,31.40
2017-07-30T17:31:31.503Z,31.30
2017-07-30T17:33:59.776Z,31.20
2017-07-30T17:36:28.707Z,31.10
2017-07-30T17:38:57.064Z,31.00
2017-07-30T17:41:25.859Z,30.90
2017-07-30T17:43:54.456Z,30.80
2017-07-30T17:46:22.814Z,30.70
2017-07-30T17:48:51.228Z,30.60
2017-07-30T17:51:19.583Z,30.60
2017-07-30T17:53:48.085Z,30.50
2017-07-30T17:56:17.171Z,30.50
2017-07-30T17:58:45.765Z,30.40
2017-07-30T18:01:14.046Z,30.30
2017-07-30T18:03:42.378Z,30.20
2017-07-30T18:06:10.758Z,30.20
2017-07-30T18:08:39.422Z,30.10
2017-07-30T18:11:07.704Z,30.00
2017-07-30T18:13:36.775Z,29.90
2017-07-30T18:16:06.323Z,29.80
2017-07-30T18:18:34.634Z,29.80
2017-07-30T18:21:02.970Z,29.70
2017-07-30T18:23:32.179Z,29.70
2017-07-30T18:26:01.554Z,29.60
2017-07-30T18:28:29.849Z,29.60
2017-07-30T18:30:59.857Z,29.50
2017-07-30T18:33:28.977Z,29.50
2017-07-30T18:35:57.280Z,29.50
2017-07-30T18:38:27.443Z,29.40
2017-07-30T18:40:55.745Z,29.40
2017-07-30T18:43:24.607Z,29.30
2017-07-30T18:45:52.974Z,29.30
2017-07-30T18:48:22.051Z,29.20
2017-07-30T18:50:51.029Z,29.20
2017-07-30T18:53:19.450Z,29.10
2017-07-30T18:55:49.899Z,29.10
2017-07-30T18:58:19.577Z,28.90
2017-07-30T19:00:48.923Z,28.90
2017-07-30T19:03:18.125Z,28.80
2017-07-30T19:05:47.044Z,28.80
2017-07-30T19:08:16.570Z,28.70
2017-07-30T19:10:44.958Z,28.60
2017-07-30T19:13:14.164Z,28.50
2017-07-30T19:15:42.558Z,28.40
2017-07-30T19:18:11.558Z,28.30
2017-07-30T19:20:40.166Z,28.20
2017-07-30T19:23:08.784Z,28.10
2017-07-30T19:25:38.762Z,28.00
2017-07-30T19:28:07.114Z,28.00
2017-07-30T19:30:35.555Z,27.90
2017-07-30T19:33:04.941Z,27.80
2017-07-30T19:35:34.234Z,27.70
2017-07-30T19:38:02.541Z,27.70
2017-07-30T19:40:31.610Z,27.50
2017-07-30T19:43:00.018Z,27.50
2017-07-30T19:45:28.296Z,27.50
2017-07-30T19:47:57.092Z,27.40
2017-07-30T19:50:25.643Z,27.40
2017-07-30T19:52:54.052Z,27.40
2017-07-30T19:55:22.444Z,27.40
2017-07-30T19:57:50.761Z,27.40
2017-07-30T20:00:19.047Z,27.30
2017-07-30T20:02:47.662Z,27.30
2017-07-30T20:05:15.930Z,27.30
2017-07-30T20:07:44.240Z,27.20
2017-07-30T20:10:12.528Z,27.20
2017-07-30T20:12:40.814Z,27.10
2017-07-30T20:15:09.511Z,27.00
2017-07-30T20:17:38.303Z,27.00
2017-07-30T20:20:06.674Z,26.90
2017-07-30T20:22:35.575Z,26.90
2017-07-30T20:25:03.840Z,26.80
2017-07-30T20:27:32.241Z,26.70
2017-07-30T20:30:01.455Z,26.70
2017-07-30T20:32:30.834Z,26.60
2017-07-30T20:34:59.182Z,26.60
2017-07-30T20:37:28.336Z,26.40
2017-07-30T20:39:56.713Z,26.40
2017-07-30T20:42:25.004Z,26.40
2017-07-30T20:44:53.687Z,26.30
2017-07-30T20:47:21.983Z,26.30
2017-07-30T20:49:51.142Z,26.20
2017-07-30T20:52:19.537Z,26.10
2017-07-30T20:54:47.827Z,26.10
2017-07-30T20:57:16.409Z,26.10
2017-07-30T20:59:45.417Z,26.00
2017-07-30T21:02:13.857Z,25.90
2017-07-30T21:04:42.188Z,25.90
2017-07-30T21:07:10.474Z,25.80
2017-07-30T21:09:39.056Z,25.80
2017-07-30T21:12:07.438Z,25.70
2017-07-30T21:14:36.984Z,25.60
2017-07-30T21:17:06.472Z,25.50
2017-07-30T21:19:34.750Z,25.50
2017-07-30T21:22:03.829Z,25.40
2017-07-30T21:24:32.108Z,25.30
2017-07-30T21:27:00.411Z,25.30
2017-07-30T21:29:29.398Z,25.20
2017-07-30T21:31:58.219Z,25.20
2017-07-30T21:34:27.521Z,25.20
2017-07-30T21:36:56.617Z,25.10
2017-07-30T21:39:25.681Z,25.10
2017-07-30T21:41:54.076Z,25.10
2017-07-30T21:44:23.143Z,25.00
2017-07-30T21:46:51.766Z,24.90
2017-07-30T21:49:20.253Z,24.90
2017-07-30T21:51:48.950Z,24.90
2017-07-30T21:54:17.327Z,24.90
2017-07-30T21:56:45.615Z,24.80
2017-07-30T21:59:14.196Z,24.80
2017-07-30T22:01:43.834Z,24.80
2017-07-30T22:04:13.300Z,24.80
2017-07-30T22:06:41.712Z,24.80
2017-07-30T22:09:10.503Z,24.80
2017-07-30T22:11:39.085Z,24.80
2017-07-30T22:14:07.473Z,24.70
2017-07-30T22:16:36.680Z,24.70
2017-07-30T22:19:05.041Z,24.70
2017-07-30T22:21:33.349Z,24.80
2017-07-30T22:24:01.918Z,24.60
2017-07-30T22:26:30.866Z,24.60
2017-07-30T22:28:59.556Z,24.60
2017-07-30T22:31:28.976Z,24.60
2017-07-30T22:33:58.172Z,24.50
2017-07-30T22:36:26.457Z,24.40
2017-07-30T22:38:55.418Z,24.40
2017-07-30T22:41:24.822Z,24.40
2017-07-30T22:43:53.915Z,24.40
2017-07-30T22:46:22.178Z,24.30
2017-07-30T22:48:50.828Z,24.30
2017-07-30T22:51:19.634Z,24.30
2017-07-30T22:53:48.520Z,24.20
2017-07-30T22:56:16.804Z,24.20
2017-07-30T22:58:45.936Z,24.10
2017-07-30T23:01:14.324Z,24.00
2017-07-30T23:03:43.523Z,24.00
2017-07-30T23:06:12.108Z,24.00
2017-07-30T23:08:42.072Z,24.00
2017-07-30T23:11:10.414Z,24.00
2017-07-30T23:13:39.108Z,24.00
2017-07-30T23:16:07.523Z,24.00
2017-07-30T23:18:37.155Z,24.00
2017-07-30T23:21:05.869Z,24.00
2017-07-30T23:23:34.558Z,24.00
2017-07-30T23:26:03.380Z,23.90
2017-07-30T23:28:31.684Z,23.90
2017-07-30T23:31:00.223Z,23.80
2017-07-30T23:33:28.864Z,23.80
2017-07-30T23:35:58.358Z,23.70
2017-07-30T23:38:26.663Z,23.70
2017-07-30T23:40:55.710Z,23.60
2017-07-30T23:43:24.305Z,23.50
2017-07-30T23:45:52.599Z,23.60
2017-07-30T23:48:21.751Z,23.50
2017-07-30T23:50:50.090Z,23.50
2017-07-30T23:53:18.475Z,23.50
2017-07-30T23:55:47.162Z,23.50
2017-07-30T23:58:15.870Z,23.40
